createdAt,value
2022-09-07T00:01:16.520Z,148016.09
2022-09-07T00:03:43.617Z,148072.41
2022-09-07T00:06:12.987Z,148067.50
2022-09-07T00:08:41.458Z,148057.69
2022-09-07T00:11:12.736Z,148052.78
2022-09-07T00:13:41.475Z,148008.78
2022-09-07T00:16:12.285Z,148045.50
2022-09-07T00:18:45.100Z,147986.78
2022-09-07T00:21:14.611Z,148038.13
2022-09-07T00:23:41.908Z,148033.25
2022-09-07T00:26:11.813Z,148045.50
2022-09-07T00:28:39.353Z,148023.47
2022-09-07T00:31:12.021Z,148045.50
2022-09-07T00:33:39.891Z,148033.25
2022-09-07T00:36:07.143Z,148047.91
2022-09-07T00:38:34.936Z,148016.09
2022-09-07T00:41:02.358Z,148063.84
2022-09-07T00:43:35.866Z,148079.72
2022-09-07T00:46:04.819Z,148088.28
2022-09-07T00:48:56.727Z,148095.63
2022-09-07T00:51:36.583Z,148078.50
2022-09-07T00:54:11.654Z,147970.91
2022-09-07T00:56:42.369Z,147855.88
2022-09-07T00:59:13.168Z,147758.13
2022-09-07T01:01:40.522Z,147693.31
2022-09-07T01:04:08.695Z,147687.22
2022-09-07T01:06:38.149Z,147639.53
2022-09-07T01:09:10.253Z,147654.19
2022-09-07T01:11:38.425Z,147683.53
2022-09-07T01:14:08.947Z,147621.22
2022-09-07T01:17:08.153Z,147593.13
2022-09-07T01:20:13.567Z,147601.66
2022-09-07T01:23:30.075Z,147615.13
2022-09-07T01:26:13.826Z,147615.13
2022-09-07T01:28:42.148Z,147627.34
2022-09-07T01:31:48.788Z,147615.13
2022-09-07T01:34:25.382Z,147613.91
2022-09-07T01:37:10.447Z,147620.00
2022-09-07T01:39:58.662Z,147583.34
2022-09-07T01:42:33.738Z,147610.22
2022-09-07T01:45:04.223Z,147602.88
2022-09-07T01:47:37.073Z,147612.66
2022-09-07T01:50:25.293Z,147622.47
2022-09-07T01:52:58.147Z,147634.66
2022-09-07T01:55:46.599Z,147617.53
2022-09-07T01:58:27.512Z,147522.28
2022-09-07T02:01:01.808Z,147566.25
2022-09-07T02:03:35.975Z,147551.59
2022-09-07T02:06:14.292Z,147598.00
2022-09-07T02:08:49.328Z,147561.34
2022-09-07T02:11:24.538Z,147529.59
2022-09-07T02:13:58.526Z,147588.22
2022-09-07T02:16:30.815Z,147583.34
2022-09-07T02:19:19.836Z,147563.81
2022-09-07T02:21:53.825Z,147536.94
2022-09-07T02:24:35.199Z,147539.34
2022-09-07T02:27:09.217Z,147514.94
2022-09-07T02:29:36.413Z,147536.94
2022-09-07T02:32:04.257Z,147536.94
2022-09-07T02:34:32.085Z,147452.59
2022-09-07T02:37:01.865Z,147524.72
2022-09-07T02:39:29.332Z,147530.84
2022-09-07T02:41:56.391Z,147541.81
2022-09-07T02:44:26.669Z,147506.38
2022-09-07T02:47:11.931Z,147519.81
2022-09-07T02:49:39.265Z,147522.28
2022-09-07T02:52:15.277Z,147522.28
2022-09-07T02:55:06.353Z,147516.16
2022-09-07T02:57:39.768Z,147500.28
2022-09-07T03:00:26.092Z,147418.44
2022-09-07T03:03:23.518Z,147488.03
2022-09-07T03:05:50.581Z,147495.41
2022-09-07T03:08:25.829Z,147414.75
2022-09-07T03:10:54.078Z,147485.59
2022-09-07T03:13:23.716Z,147472.16
2022-09-07T03:15:55.515Z,147466.03
2022-09-07T03:18:25.099Z,147451.38
2022-09-07T03:20:52.751Z,147444.09
2022-09-07T03:23:19.834Z,147429.41
2022-09-07T03:25:50.146Z,147411.06
2022-09-07T03:28:17.505Z,147400.09
2022-09-07T03:30:47.117Z,147385.47
2022-09-07T03:33:17.468Z,147364.69
2022-09-07T03:35:46.325Z,147369.56
2022-09-07T03:38:13.471Z,147356.13
2022-09-07T03:40:40.609Z,147341.50
2022-09-07T03:43:07.707Z,147343.97
2022-09-07T03:45:35.046Z,147317.09
2022-09-07T03:48:02.263Z,147311.00
2022-09-07T03:50:29.302Z,147317.09
2022-09-07T03:52:56.360Z,147318.31
2022-09-07T03:55:23.423Z,147320.78
2022-09-07T03:57:50.492Z,147326.84
2022-09-07T04:00:17.672Z,147311.00
2022-09-07T04:02:44.748Z,147302.47
2022-09-07T04:05:11.870Z,147291.44
2022-09-07T04:07:38.958Z,147279.28
2022-09-07T04:10:06.443Z,147258.50
2022-09-07T04:12:33.474Z,147259.72
2022-09-07T04:15:00.512Z,147257.28
2022-09-07T04:17:27.747Z,147248.75
2022-09-07T04:19:55.727Z,147241.34
2022-09-07T04:22:22.776Z,147245.03
2022-09-07T04:24:50.071Z,147238.94
2022-09-07T04:27:17.154Z,147246.28
2022-09-07T04:29:44.204Z,147241.34
2022-09-07T04:32:15.516Z,147229.19
2022-09-07T04:34:43.363Z,147163.25
2022-09-07T04:37:10.496Z,147216.97
2022-09-07T04:39:37.590Z,147196.19
2022-09-07T04:42:04.734Z,147202.31
2022-09-07T04:44:31.773Z,147203.53
2022-09-07T04:46:58.867Z,147219.41
2022-09-07T04:49:26.003Z,147212.06
2022-09-07T04:51:53.043Z,147194.97
2022-09-07T04:54:20.101Z,147173.00
2022-09-07T04:56:47.128Z,147213.28
2022-09-07T04:59:14.196Z,147207.19
2022-09-07T05:01:41.314Z,147268.25
2022-09-07T05:04:08.551Z,147227.91
2022-09-07T05:06:35.731Z,147206.00
2022-09-07T05:09:02.826Z,147218.16
2022-09-07T05:11:30.256Z,147204.72
2022-09-07T05:13:59.096Z,147224.28
2022-09-07T05:16:27.217Z,147237.72
2022-09-07T05:18:57.064Z,147243.81
2022-09-07T05:21:27.555Z,147199.84
2022-09-07T05:23:56.813Z,147280.47
2022-09-07T05:26:26.808Z,147278.00
2022-09-07T05:31:41.256Z,147269.47
2022-09-07T05:36:56.755Z,147331.72
2022-09-07T05:39:24.180Z,147300.00
2022-09-07T05:41:51.251Z,147293.91
2022-09-07T05:47:05.775Z,147303.66
2022-09-07T05:49:32.850Z,147363.47
2022-09-07T05:51:59.903Z,147356.13
2022-09-07T05:54:26.974Z,147319.50
2022-09-07T05:56:54.016Z,147341.50
2022-09-07T05:59:21.209Z,147357.38
2022-09-07T06:01:48.862Z,147321.97
2022-09-07T06:04:16.167Z,147356.13
2022-09-07T06:06:47.817Z,147387.88
2022-09-07T06:09:29.854Z,147397.66
2022-09-07T06:11:57.657Z,147409.88
2022-09-07T06:14:25.053Z,147422.09
2022-09-07T06:16:52.160Z,147417.22
2022-09-07T06:19:19.238Z,147409.88
2022-09-07T06:21:46.255Z,147409.88
2022-09-07T06:24:13.525Z,147380.59
2022-09-07T06:26:40.591Z,147459.94
2022-09-07T06:29:09.457Z,147485.59
2022-09-07T06:34:24.225Z,147495.41
2022-09-07T06:36:51.295Z,147517.41
2022-09-07T06:39:18.618Z,147557.69
2022-09-07T06:42:01.261Z,147585.81
2022-09-07T06:44:31.313Z,147555.25
2022-09-07T06:49:28.632Z,147627.34
2022-09-07T06:51:55.669Z,147588.22
2022-09-07T06:57:10.011Z,147710.44
2022-09-07T06:59:37.768Z,147646.88
2022-09-07T07:02:11.536Z,147723.91
2022-09-07T07:04:41.107Z,147727.53
2022-09-07T07:07:13.834Z,147763.00
2022-09-07T07:09:41.825Z,147797.25
2022-09-07T07:12:09.976Z,147803.34
2022-09-07T07:14:39.725Z,147813.13
2022-09-07T07:17:08.366Z,147778.91
2022-09-07T07:19:35.421Z,147842.47
2022-09-07T07:22:14.446Z,147877.91
2022-09-07T07:24:49.507Z,147923.16
2022-09-07T07:27:17.176Z,147948.88
2022-09-07T07:29:44.408Z,147957.44
2022-09-07T07:32:11.464Z,147979.41
2022-09-07T07:34:38.561Z,147996.56
2022-09-07T07:37:05.593Z,147967.22
2022-09-07T07:42:21.246Z,148047.91
2022-09-07T07:44:48.754Z,148093.16
2022-09-07T07:47:15.866Z,148058.94
2022-09-07T07:49:42.948Z,148085.84
2022-09-07T07:54:56.949Z,148167.81
2022-09-07T07:57:23.935Z,148155.63
2022-09-07T07:59:50.926Z,148189.84
2022-09-07T08:02:18.015Z,148262.06
2022-09-07T08:04:45.115Z,148270.63
2022-09-07T08:07:12.521Z,148326.91
2022-09-07T08:09:41.008Z,148312.22
2022-09-07T08:12:11.123Z,148363.69
2022-09-07T08:14:42.200Z,148401.63
2022-09-07T08:17:11.571Z,148424.88
2022-09-07T08:19:39.228Z,148415.09
2022-09-07T08:22:06.762Z,148444.50
2022-09-07T08:24:33.784Z,148410.19
2022-09-07T08:27:01.087Z,148453.06
2022-09-07T08:29:31.314Z,148439.59
2022-09-07T08:32:00.669Z,148492.22
2022-09-07T08:34:27.631Z,148475.06
2022-09-07T08:36:54.821Z,148554.72
2022-09-07T08:39:21.863Z,148615.94
2022-09-07T08:41:55.551Z,148606.16
2022-09-07T08:44:28.215Z,148603.69
2022-09-07T08:47:01.285Z,148646.59
2022-09-07T08:49:46.440Z,148682.06
2022-09-07T08:52:18.683Z,148782.59
2022-09-07T08:54:57.855Z,148819.34
2022-09-07T08:57:30.951Z,148821.81
2022-09-07T09:00:04.537Z,148857.38
2022-09-07T09:02:36.605Z,148832.81
2022-09-07T09:05:25.228Z,148892.88
2022-09-07T09:08:04.070Z,148865.91
2022-09-07T09:10:48.562Z,148791.16
2022-09-07T09:13:29.501Z,148727.44
2022-09-07T09:16:18.603Z,148673.53
2022-09-07T09:19:23.367Z,148716.41
2022-09-07T09:22:02.478Z,148672.28
2022-09-07T09:24:37.564Z,148736.03
2022-09-07T09:27:04.767Z,148830.41
2022-09-07T09:29:33.504Z,148818.13
2022-09-07T09:32:37.625Z,148896.56
2022-09-07T09:35:16.359Z,148846.31
2022-09-07T09:37:43.920Z,148804.66
2022-09-07T09:40:23.600Z,148861.00
2022-09-07T09:43:21.210Z,148874.47
2022-09-07T09:48:40.371Z,148946.84
2022-09-07T09:54:18.337Z,149096.47
2022-09-07T09:56:46.833Z,149166.38
2022-09-07T10:05:30.779Z,149089.09
2022-09-07T10:07:58.152Z,148957.88
2022-09-07T10:10:29.639Z,149030.19
2022-09-07T10:12:57.444Z,148957.88
2022-09-07T10:15:29.191Z,148912.56
2022-09-07T10:17:57.913Z,148775.25
2022-09-07T10:20:37.240Z,148797.28
2022-09-07T10:23:18.022Z,148846.31
2022-09-07T10:25:45.220Z,148775.25
2022-09-07T10:28:15.307Z,148808.31
2022-09-07T10:31:15.826Z,148750.72
2022-09-07T10:34:26.519Z,148750.72
2022-09-07T10:37:10.252Z,148807.13
2022-09-07T10:39:52.714Z,148886.75
2022-09-07T10:42:39.502Z,148809.53
2022-09-07T10:45:15.653Z,148917.44
2022-09-07T10:48:01.172Z,148983.63
2022-09-07T10:50:39.551Z,149100.13
2022-09-07T10:53:43.397Z,149162.69
2022-09-07T10:56:15.193Z,149187.19
2022-09-07T10:59:03.512Z,149309.91
2022-09-07T11:01:58.408Z,149432.66
2022-09-07T11:04:47.894Z,149486.63
2022-09-07T11:07:27.121Z,149449.81
2022-09-07T11:10:15.987Z,149393.31
2022-09-07T11:12:45.131Z,149343.03
2022-09-07T11:15:12.114Z,149356.53
2022-09-07T11:17:52.800Z,149383.50
2022-09-07T11:20:42.471Z,149347.91
2022-09-07T11:23:15.498Z,149351.63
2022-09-07T11:25:55.559Z,149377.41
2022-09-07T11:28:43.062Z,149383.50
2022-09-07T11:31:20.157Z,149340.59
2022-09-07T11:34:25.656Z,149252.22
2022-09-07T11:37:03.140Z,149219.06
2022-09-07T11:39:44.363Z,149172.47
2022-09-07T11:45:38.015Z,149101.38
2022-09-07T11:48:19.335Z,149058.38
2022-09-07T11:50:52.683Z,149096.47
2022-09-07T11:53:27.738Z,149076.78
2022-09-07T11:56:00.694Z,149105.03
2022-09-07T11:58:51.268Z,149096.47
2022-09-07T12:01:38.311Z,149081.72
2022-09-07T12:04:15.409Z,149064.56
2022-09-07T12:07:04.230Z,149049.81
2022-09-07T12:10:06.458Z,148968.94
2022-09-07T12:12:56.650Z,149037.56
2022-09-07T12:15:47.871Z,149058.38
2022-09-07T12:18:52.444Z,149092.78
2022-09-07T12:21:42.228Z,149071.88
2022-09-07T12:24:35.400Z,149091.53
2022-09-07T12:27:09.731Z,149062.06
2022-09-07T12:29:37.205Z,149123.41
2022-09-07T12:32:53.660Z,149223.97
2022-09-07T12:34:57.789Z,149319.72
2022-09-07T12:37:27.507Z,149317.28
2022-09-07T12:40:35.738Z,149298.88
2022-09-07T12:43:14.715Z,149389.63
2022-09-07T12:45:42.161Z,149390.91
2022-09-07T12:48:15.493Z,149352.81
2022-09-07T12:50:58.895Z,149427.75
2022-09-07T12:53:33.595Z,149410.50
2022-09-07T12:56:22.351Z,149408.03
2022-09-07T12:58:49.278Z,149387.19
2022-09-07T13:01:28.241Z,149384.72
2022-09-07T13:04:20.277Z,149383.50
2022-09-07T13:07:09.188Z,149347.91
2022-09-07T13:09:38.491Z,149290.28
2022-09-07T13:12:53.681Z,149395.81
2022-09-07T13:15:40.772Z,149497.69
2022-09-07T13:18:28.507Z,149471.91
2022-09-07T13:21:07.737Z,149435.09
2022-09-07T13:23:37.911Z,149405.59
2022-09-07T13:26:08.607Z,149351.63
2022-09-07T13:28:51.993Z,149341.81
2022-09-07T13:31:48.497Z,149345.50
2022-09-07T13:34:33.889Z,149356.53
2022-09-07T13:37:02.342Z,149289.03
2022-09-07T13:39:39.004Z,149221.56
2022-09-07T13:42:06.722Z,149295.19
2022-09-07T13:44:34.658Z,149264.50
2022-09-07T13:47:33.382Z,149292.72
2022-09-07T13:50:11.703Z,149309.91
2022-09-07T13:52:55.102Z,149330.72
2022-09-07T13:55:27.694Z,149316.03
2022-09-07T13:58:06.727Z,149313.59
2022-09-07T14:00:34.711Z,149292.72
2022-09-07T14:03:16.401Z,149306.22
2022-09-07T14:05:43.435Z,149422.81
2022-09-07T14:08:28.002Z,149505.03
2022-09-07T14:10:55.483Z,149491.53
2022-09-07T14:13:22.543Z,149481.72
2022-09-07T14:15:50.887Z,149425.28
2022-09-07T14:18:22.614Z,149341.81
2022-09-07T14:20:51.986Z,149464.56
2022-09-07T14:23:29.888Z,149521.00
2022-09-07T14:26:16.586Z,149578.72
2022-09-07T14:28:46.873Z,149615.53
2022-09-07T14:31:17.138Z,149608.19
2022-09-07T14:34:02.405Z,149668.34
2022-09-07T14:36:45.372Z,149576.22
2022-09-07T14:39:18.566Z,149467.00
2022-09-07T14:41:46.213Z,149495.22
2022-09-07T14:44:38.691Z,149443.69
2022-09-07T14:47:30.308Z,149508.72
2022-09-07T14:50:05.673Z,149503.81
2022-09-07T14:52:42.979Z,149459.59
2022-09-07T14:55:31.695Z,149479.28
2022-09-07T14:58:13.910Z,149491.53
2022-09-07T15:00:46.561Z,149521.00
2022-09-07T15:03:28.887Z,149663.44
2022-09-07T15:06:00.846Z,149631.53
2022-09-07T15:08:39.199Z,149733.41
2022-09-07T15:14:01.488Z,149604.50
2022-09-07T15:16:34.342Z,149557.81
2022-09-07T15:19:17.013Z,149475.59
2022-09-07T15:21:44.849Z,149428.97
2022-09-07T15:24:12.055Z,149317.28
2022-09-07T15:27:04.283Z,149356.53
2022-09-07T15:29:32.080Z,149363.91
2022-09-07T15:32:04.485Z,149351.63
2022-09-07T15:34:32.653Z,149324.63
2022-09-07T15:37:01.694Z,149297.63
2022-09-07T15:39:30.517Z,149301.31
2022-09-07T15:41:58.874Z,149323.41
2022-09-07T15:44:28.076Z,149312.34
2022-09-07T15:49:50.019Z,149527.13
2022-09-07T15:52:18.378Z,149562.72
2022-09-07T15:54:45.504Z,149561.50
2022-09-07T15:59:59.727Z,149506.28
2022-09-07T16:05:13.814Z,149754.31
2022-09-07T16:10:31.095Z,150322.13
2022-09-07T16:13:01.227Z,150393.47
2022-09-07T16:15:29.450Z,150427.94
2022-09-07T16:17:56.518Z,150383.63
2022-09-07T16:20:23.560Z,150504.19
2022-09-07T16:25:39.664Z,150245.91
2022-09-07T16:28:07.207Z,150027.06
2022-09-07T16:30:34.303Z,149816.97
2022-09-07T16:33:01.431Z,149700.28
2022-09-07T16:35:28.594Z,149506.28
2022-09-07T16:40:43.736Z,149381.03
2022-09-07T16:43:10.797Z,149354.09
2022-09-07T16:48:24.848Z,149474.38
2022-09-07T16:51:00.330Z,149511.19
2022-09-07T16:53:30.214Z,149490.31
2022-09-07T16:56:16.675Z,149686.75
2022-09-07T16:58:49.893Z,149884.53
2022-09-07T17:01:20.070Z,150159.78
2022-09-07T17:03:49.387Z,150078.72
2022-09-07T17:06:18.604Z,149846.41
2022-09-07T17:08:45.788Z,149638.84
2022-09-07T17:11:19.122Z,149581.19
2022-09-07T17:13:46.787Z,149476.81
2022-09-07T17:16:17.705Z,149248.53
2022-09-07T17:21:36.336Z,149292.72
2022-09-07T17:24:05.509Z,149267.00
2022-09-07T17:26:33.156Z,149255.91
2022-09-07T17:29:01.207Z,149249.75
2022-09-07T17:34:21.080Z,149201.91
2022-09-07T17:36:48.294Z,149136.91
2022-09-07T17:39:17.554Z,149136.91
2022-09-07T17:41:45.525Z,149174.97
2022-09-07T17:44:12.719Z,149179.84
2022-09-07T17:46:39.743Z,149124.69
2022-09-07T17:49:10.100Z,149106.28
2022-09-07T17:51:37.126Z,149079.25
2022-09-07T17:54:11.108Z,149037.56
2022-09-07T17:56:40.411Z,149015.50
2022-09-07T18:01:55.437Z,148950.53
2022-09-07T18:04:23.477Z,148880.66
2022-09-07T18:06:50.817Z,148899.03
2022-09-07T18:09:19.500Z,148870.78
2022-09-07T18:11:48.548Z,148824.25
2022-09-07T18:14:16.928Z,148782.59
2022-09-07T18:16:45.929Z,148770.38
2022-09-07T18:19:14.069Z,148739.72
2022-09-07T18:21:43.021Z,148699.22
2022-09-07T18:24:22.020Z,148712.72
2022-09-07T18:26:52.439Z,148684.53
2022-09-07T18:29:32.324Z,148678.44
2022-09-07T18:32:01.143Z,148689.44
2022-09-07T18:34:31.871Z,148614.75
2022-09-07T18:36:59.840Z,148612.25
2022-09-07T18:39:27.540Z,148593.91
2022-09-07T18:41:54.924Z,148596.38
2022-09-07T18:47:09.015Z,148603.69
2022-09-07T18:49:36.024Z,148548.56
2022-09-07T18:54:50.884Z,148537.53
2022-09-07T18:57:17.894Z,148481.22
2022-09-07T18:59:45.006Z,148500.78
2022-09-07T19:02:12.205Z,148500.78
2022-09-07T19:07:29.832Z,148444.50
2022-09-07T19:09:58.067Z,148454.28
2022-09-07T19:12:25.095Z,148423.66
2022-09-07T19:14:52.145Z,148393.03
2022-09-07T19:17:19.550Z,148385.72
2022-09-07T19:19:46.967Z,148351.41
2022-09-07T19:22:13.947Z,148324.50
2022-09-07T19:24:40.963Z,148175.19
2022-09-07T19:27:08.006Z,148200.91
2022-09-07T19:29:35.191Z,148236.34
2022-09-07T19:32:06.587Z,148199.63
2022-09-07T19:34:35.429Z,148188.66
2022-09-07T19:37:02.953Z,148180.06
2022-09-07T19:39:30.095Z,148165.41
2022-09-07T19:41:57.209Z,148171.50
2022-09-07T19:44:24.300Z,148143.31
2022-09-07T19:46:51.443Z,148131.06
2022-09-07T19:49:18.459Z,148187.44
2022-09-07T19:51:45.935Z,148149.47
2022-09-07T19:54:13.613Z,148123.75
2022-09-07T19:56:42.698Z,148066.25
2022-09-07T19:59:10.298Z,148089.50
2022-09-07T20:01:39.964Z,148016.09
2022-09-07T20:04:10.455Z,148024.69
2022-09-07T20:06:39.366Z,148062.63
2022-09-07T20:09:07.920Z,148056.47
2022-09-07T20:11:35.859Z,147999.03
2022-09-07T20:14:03.686Z,147962.34
2022-09-07T20:16:31.255Z,147944.00
2022-09-07T20:18:59.643Z,147920.72
2022-09-07T20:21:26.998Z,147876.69
2022-09-07T20:23:54.055Z,147928.03
2022-09-07T20:26:22.326Z,147898.69
2022-09-07T20:29:10.973Z,147881.56
2022-09-07T20:31:44.018Z,147898.69
2022-09-07T20:34:11.283Z,147840.00
2022-09-07T20:36:38.286Z,147857.16
2022-09-07T20:39:05.405Z,147842.47
2022-09-07T20:41:34.046Z,147818.00
2022-09-07T20:44:04.147Z,147811.91
2022-09-07T20:46:31.761Z,147744.66
2022-09-07T20:48:59.139Z,147733.69
2022-09-07T20:51:26.153Z,147712.84
2022-09-07T20:53:53.631Z,147732.47
2022-09-07T20:56:22.743Z,147707.97
2022-09-07T20:58:55.177Z,147699.41
2022-09-07T21:01:22.692Z,147703.06
2022-09-07T21:03:52.423Z,147705.53
2022-09-07T21:06:21.552Z,147698.19
2022-09-07T21:08:49.560Z,147643.22
2022-09-07T21:11:23.974Z,147698.19
2022-09-07T21:13:55.895Z,147683.53
2022-09-07T21:16:23.029Z,147695.78
2022-09-07T21:18:54.376Z,147688.44
2022-09-07T21:21:23.198Z,147643.22
2022-09-07T21:23:59.293Z,147624.88
2022-09-07T21:26:27.908Z,147639.53
2022-09-07T21:28:59.658Z,147634.66
2022-09-07T21:31:29.018Z,147577.25
2022-09-07T21:33:58.418Z,147624.88
2022-09-07T21:36:26.522Z,147600.47
2022-09-07T21:38:54.192Z,147599.22
2022-09-07T21:41:23.151Z,147569.91
2022-09-07T21:43:55.322Z,147554.06
2022-09-07T21:46:22.724Z,147519.81
2022-09-07T21:48:49.838Z,147536.94
2022-09-07T21:51:18.353Z,147510.06
2022-09-07T21:53:45.421Z,147505.19
2022-09-07T21:56:14.238Z,147494.22
2022-09-07T21:58:41.623Z,147490.53
2022-09-07T22:01:14.329Z,147488.03
2022-09-07T22:03:41.700Z,147488.03
2022-09-07T22:06:10.018Z,147505.19
2022-09-07T22:08:38.759Z,147495.41
2022-09-07T22:11:11.498Z,147461.16
2022-09-07T22:13:39.299Z,147444.09
2022-09-07T22:16:07.316Z,147425.78
2022-09-07T22:18:37.118Z,147418.44
2022-09-07T22:21:10.059Z,147423.31
2022-09-07T22:23:40.266Z,147405.00
2022-09-07T22:26:08.340Z,147370.81
2022-09-07T22:28:36.381Z,147392.75
2022-09-07T22:31:13.218Z,147376.91
2022-09-07T22:33:41.400Z,147368.34
2022-09-07T22:36:23.355Z,147339.06
2022-09-07T22:38:53.004Z,147341.50
2022-09-07T22:41:22.868Z,147331.72
2022-09-07T22:43:50.877Z,147318.31
2022-09-07T22:46:21.192Z,147309.75
2022-09-07T22:48:49.277Z,147328.06
2022-09-07T22:51:16.896Z,147270.72
2022-09-07T22:53:44.405Z,147291.44
2022-09-07T22:56:18.263Z,147324.41
2022-09-07T22:58:51.250Z,147304.88
2022-09-07T23:01:19.289Z,147309.75
2022-09-07T23:03:46.824Z,147312.22
2022-09-07T23:06:32.374Z,147287.78
2022-09-07T23:09:01.176Z,147248.75
2022-09-07T23:11:29.735Z,147237.72
2022-09-07T23:13:59.179Z,147231.59
2022-09-07T23:16:27.684Z,147198.66
2022-09-07T23:18:57.049Z,147263.38
2022-09-07T23:21:24.651Z,147246.28
2022-09-07T23:23:53.659Z,147249.94
2022-09-07T23:26:22.153Z,147268.25
2022-09-07T23:28:55.561Z,147214.50
2022-09-07T23:31:23.949Z,147245.03
2022-09-07T23:33:51.180Z,147251.16
2022-09-07T23:36:19.281Z,147248.75
2022-09-07T23:38:46.501Z,147229.19
2022-09-07T23:41:14.116Z,147175.47
2022-09-07T23:43:41.539Z,147234.06
2022-09-07T23:46:10.063Z,147224.28
2022-09-07T23:48:37.175Z,147236.47
2022-09-07T23:51:04.596Z,147229.19
2022-09-07T23:53:31.956Z,147227.91
2022-09-07T23:55:59.011Z,147186.44
2022-09-07T23:58:26.080Z,147186.44
